Oakdale, LA

12:53 AM CDT on March 23, 2017 (GMT -0500)
Oakdale | | Change Station
Active Advisory: Dense Fog Advisory

Elev 108 ft 30.75 °N, 92.69 °W | Updated 18 minutes ago

Clear
Clear
60 °F
Feels Like 60 °F
N
0
Wind Variable Wind from North

Today
High -- | Low -- °F
--% Chance of Precip.
Yesterday
High -- | Low -- °F
Precip. -- in
Pressure 30.17 in
Visibility 3.0 miles
Clouds Clear
Dew Point 59 °F
Humidity 97%
Rainfall 0.00 in
Snow Depth Not available.
7:10 AM 7:24 PM
Waning Crescent, 26% visible
METAR KACP 230535Z AUTO 00000KT 3SM BR CLR 16/15 A3017 RMK AO2 T01550151
Pressure 30.17 in
Visibility 3.0 miles
Clouds Clear
Dew Point 59 °F
Humidity 97%
Rainfall 0.00 in
Snow Depth Not available.
7:10 AM 7:24 PM
Waning Crescent, 26% visible
METAR KACP 230535Z AUTO 00000KT 3SM BR CLR 16/15 A3017 RMK AO2 T01550151

Get Your Daily Forecast Email!

Thanks for signing up!

Be on the lookout for a verification email in your inbox.

You'll start receiving severe weather alerts in your inbox..

×

10-Day Weather Forecast

Almanac

Astronomy

Mar. 23, 2017 Rise Set
Actual Time
Civil Twilight
Nautical Twilight
Astronomical Twilight
Moon
Length of Visible Light
Length of Day
Tomorrow will be .
, % of the Moon is Illuminated

Today's Extremes

State Highs State Lows

Community

WunderPhotos

Upload Photos

1,962,540 photos uploaded!

WunderBlog® & News

Nearby

Air Quality

  Air Quality AQ Index Pollutant
Not available.

Snow Depth

Station Depth Elevation

Earthquake Activity

City Distance Mag. Time & Date
Minimum magnitude displayed is 2.5.

Earthquake Activity

City Distance Mag. Time & Date
Minimum magnitude displayed is 2.5.

Coastal Water Temperatures

Place Temperature

Stations

Nearby Weather Stations

Station Location Temp. Windchill Dew Point Humidity Wind Precip. Elev Updated Type
                   

Watches & Warnings

Dense Fog Advisory
Issued: 9:58 PM CDT Mar. 22, 2017 – National Weather Service

... Dense fog advisory in effect from 1 am to 9 am CDT Thursday...

The National Weather Service in Lake Charles has issued a dense
fog advisory, which is in effect from 1 am to 9 am CDT Thursday.

* Visibility... less than one quarter of a mile.

* Impacts... rapid visibility changes over short distances will
result in hazardous driving conditions.


Precautionary/preparedness actions...

A dense fog advisory means visibilities will frequently be
reduced to less than one quarter mile. If driving... slow down...
use your headlights... and leave plenty of distance ahead of you.



13